Terminal Aerodrome Forecast
Issued by NWS Jackson, MS

Home | Current Version | Previous Version | Text Only | Print | Product List | Glossary On
Versions: 1 2 3 4 5 6 7 8 9 10 11 12
000
FTUS44 KJAN 251720
TAFGLH
TAF
KGLH 251720Z 2518/2618 30007KT P6SM FEW070
     FM260000 36003KT P6SM SKC
     FM261400 01010KT P6SM SCT100=

USA.gov is the U.S. government's official web portal to all federal, state and local government web resources and services.